Terminal Aerodrome Forecast
Issued by NWS

Home | Current Version | Previous Version | Text Only | Print | Product List | Glossary On
Versions: 1 2 3 4 5 6 7 8 9 10 11 12 13 14 15 16 17 18 19 20 21 22 23 24
178
FTUS45 KGJT 140527
TAFASE
TAF
KASE 140527Z 1406/1506 21005KT P6SM SCT070
     FM140800 16005KT P6SM BKN100
     FM141900 32010KT P6SM BKN110 OVC150
     FM142100 30010G20KT P6SM VCSH OVC070
     FM150200 35005KT 3SM -SN BR OVC025=

USA.gov is the U.S. government's official web portal to all federal, state and local government web resources and services.